createdAt,value
2018-01-14T00:01:23.355Z,12.90
2018-01-14T00:03:51.690Z,13.47
2018-01-14T00:06:20.224Z,14.00
2018-01-14T00:08:48.626Z,13.17
2018-01-14T00:11:17.823Z,13.83
2018-01-14T00:13:47.206Z,14.27
2018-01-14T00:16:15.561Z,14.53
2018-01-14T00:18:43.925Z,14.60
2018-01-14T00:21:12.321Z,14.60
2018-01-14T00:23:40.861Z,14.00
2018-01-14T00:26:09.442Z,13.40
2018-01-14T00:28:38.771Z,14.53
2018-01-14T00:31:07.148Z,14.60
2018-01-14T00:33:35.534Z,15.60
2018-01-14T00:36:04.013Z,13.87
2018-01-14T00:38:32.374Z,12.90
2018-01-14T00:41:00.752Z,13.60
2018-01-14T00:43:29.162Z,13.30
2018-01-14T00:45:57.595Z,13.40
2018-01-14T00:48:25.986Z,13.50
2018-01-14T00:50:54.559Z,14.60
2018-01-14T00:53:22.984Z,13.67
2018-01-14T00:55:51.447Z,13.00
2018-01-14T00:58:19.877Z,13.20
2018-01-14T01:00:49.391Z,13.30
2018-01-14T01:03:18.767Z,13.67
2018-01-14T01:05:47.286Z,13.30
2018-01-14T01:08:15.788Z,13.10
2018-01-14T01:10:44.164Z,12.30
2018-01-14T01:13:12.735Z,12.00
2018-01-14T01:15:41.126Z,13.10
2018-01-14T01:18:09.496Z,12.73
2018-01-14T01:20:37.970Z,13.90
2018-01-14T01:23:06.511Z,13.07
2018-01-14T01:25:34.995Z,13.40
2018-01-14T01:28:04.393Z,12.37
2018-01-14T01:30:33.543Z,11.97
2018-01-14T01:33:02.017Z,12.83
2018-01-14T01:35:30.367Z,12.40
2018-01-14T01:37:59.726Z,12.80
2018-01-14T01:40:28.255Z,13.00
2018-01-14T01:42:56.658Z,14.27
2018-01-14T01:45:25.010Z,13.80
2018-01-14T01:47:53.581Z,14.67
2018-01-14T01:50:22.731Z,14.90
2018-01-14T01:52:52.011Z,13.93
2018-01-14T01:55:20.466Z,13.53
2018-01-14T01:57:49.092Z,12.63
2018-01-14T02:00:17.653Z,12.87
2018-01-14T02:02:46.034Z,12.43
2018-01-14T02:05:14.390Z,13.50
2018-01-14T02:07:42.891Z,13.67
2018-01-14T02:10:11.331Z,13.87
2018-01-14T02:12:39.931Z,13.03
2018-01-14T02:15:08.332Z,14.30
2018-01-14T02:17:36.705Z,14.20
2018-01-14T02:20:05.109Z,13.23
2018-01-14T02:22:33.743Z,13.63
2018-01-14T02:25:02.267Z,14.80
2018-01-14T02:27:31.757Z,13.87
2018-01-14T02:30:00.315Z,14.23
2018-01-14T02:32:29.575Z,13.97
2018-01-14T02:34:58.036Z,14.40
2018-01-14T02:37:26.569Z,13.60
2018-01-14T02:39:56.495Z,14.47
2018-01-14T02:42:25.744Z,13.90
2018-01-14T02:44:54.362Z,14.40
2018-01-14T02:47:23.643Z,14.80
2018-01-14T02:49:52.180Z,13.43
2018-01-14T02:52:20.807Z,13.87
2018-01-14T02:54:49.506Z,13.53
2018-01-14T02:57:18.648Z,12.83
2018-01-14T02:59:46.985Z,14.90
2018-01-14T03:02:16.131Z,13.60
2018-01-14T03:04:44.491Z,13.60
2018-01-14T03:07:12.875Z,13.70
2018-01-14T03:09:41.307Z,13.47
2018-01-14T03:12:10.432Z,13.17
2018-01-14T03:14:38.893Z,13.77
2018-01-14T03:17:08.214Z,12.80
2018-01-14T03:19:36.703Z,13.73
2018-01-14T03:22:06.111Z,13.80
2018-01-14T03:24:34.480Z,14.07
2018-01-14T03:27:02.825Z,13.47
2018-01-14T03:29:31.985Z,13.57
2018-01-14T03:32:00.529Z,13.40
2018-01-14T03:34:28.965Z,13.90
2018-01-14T03:36:57.512Z,13.17
2018-01-14T03:39:25.897Z,13.00
2018-01-14T03:41:54.425Z,13.40
2018-01-14T03:44:23.568Z,12.30
2018-01-14T03:46:51.985Z,12.47
2018-01-14T03:49:20.595Z,12.87
2018-01-14T03:51:49.252Z,13.87
2018-01-14T03:54:17.736Z,13.30
2018-01-14T03:56:47.007Z,12.80
2018-01-14T03:59:15.625Z,12.80
2018-01-14T04:01:43.995Z,13.30
2018-01-14T04:04:12.372Z,13.70
2018-01-14T04:06:40.832Z,13.93
2018-01-14T04:09:09.285Z,12.13
2018-01-14T04:11:37.869Z,13.03
2018-01-14T04:14:06.520Z,13.23
2018-01-14T04:16:35.799Z,13.40
2018-01-14T04:19:04.904Z,13.63
2018-01-14T04:21:33.346Z,13.17
2018-01-14T04:24:01.883Z,12.13
2018-01-14T04:26:30.314Z,12.70
2018-01-14T04:28:58.830Z,13.80
2018-01-14T04:31:27.383Z,14.17
2018-01-14T04:33:55.951Z,13.30
2018-01-14T04:36:24.633Z,13.07
2018-01-14T04:38:53.098Z,13.37
2018-01-14T04:41:21.581Z,12.43
2018-01-14T04:43:49.977Z,13.13
2018-01-14T04:46:18.432Z,13.20
2018-01-14T04:48:46.923Z,13.73
2018-01-14T04:51:15.322Z,13.67
2018-01-14T04:53:43.804Z,13.23
2018-01-14T04:56:12.970Z,13.53
2018-01-14T04:58:41.482Z,13.70
2018-01-14T05:01:09.991Z,14.87
2018-01-14T05:03:39.349Z,14.90
2018-01-14T05:06:07.676Z,14.47
2018-01-14T05:08:36.846Z,14.27
2018-01-14T05:11:05.465Z,13.73
2018-01-14T05:13:33.832Z,12.43
2018-01-14T05:16:03.679Z,14.50
2018-01-14T05:18:32.025Z,14.03
2018-01-14T05:21:00.434Z,14.67
2018-01-14T05:23:28.989Z,14.90
2018-01-14T05:25:58.320Z,14.10
2018-01-14T05:28:26.746Z,13.70
2018-01-14T05:30:56.107Z,13.83
2018-01-14T05:33:24.592Z,14.30
2018-01-14T05:35:53.076Z,13.17
2018-01-14T05:38:21.711Z,13.97
2018-01-14T05:40:50.102Z,14.50
2018-01-14T05:43:18.602Z,14.60
2018-01-14T05:45:46.952Z,12.97
2018-01-14T05:48:15.622Z,14.43
2018-01-14T05:50:44.792Z,13.63
2018-01-14T05:53:13.268Z,14.23
2018-01-14T05:55:41.738Z,15.27
2018-01-14T05:58:10.111Z,13.90
2018-01-14T06:00:38.607Z,13.30
2018-01-14T06:03:06.640Z,13.53
2018-01-14T06:05:35.057Z,14.83
2018-01-14T06:08:03.219Z,14.80
2018-01-14T06:10:31.984Z,14.43
2018-01-14T06:13:00.360Z,14.83
2018-01-14T06:15:28.894Z,15.37
2018-01-14T06:17:57.527Z,15.83
2018-01-14T06:20:26.059Z,14.03
2018-01-14T06:22:54.566Z,14.63
2018-01-14T06:25:23.693Z,15.40
2018-01-14T06:27:52.532Z,14.60
2018-01-14T06:30:21.035Z,14.73
2018-01-14T06:32:49.388Z,15.10
2018-01-14T06:35:18.516Z,14.60
2018-01-14T06:37:46.956Z,14.53
2018-01-14T06:40:15.359Z,16.00
2018-01-14T06:42:43.853Z,14.20
2018-01-14T06:45:12.263Z,14.60
2018-01-14T06:47:40.792Z,15.50
2018-01-14T06:50:09.926Z,16.07
2018-01-14T06:52:38.308Z,15.60
2018-01-14T06:55:06.833Z,15.40
2018-01-14T06:57:35.360Z,13.93
2018-01-14T07:00:03.500Z,14.90
2018-01-14T07:02:32.688Z,15.60
2018-01-14T07:05:01.961Z,14.00
2018-01-14T07:07:30.475Z,15.10
2018-01-14T07:09:59.663Z,14.53
2018-01-14T07:12:28.964Z,14.50
2018-01-14T07:14:57.328Z,13.27
2018-01-14T07:17:25.708Z,13.67
2018-01-14T07:19:54.087Z,13.83
2018-01-14T07:22:22.611Z,15.83
2018-01-14T07:24:51.012Z,14.63
2018-01-14T07:27:19.563Z,13.07
2018-01-14T07:29:48.070Z,13.10
2018-01-14T07:32:16.471Z,14.47
2018-01-14T07:34:44.864Z,13.63
2018-01-14T07:37:13.504Z,14.23
2018-01-14T07:39:41.923Z,13.70
2018-01-14T07:42:10.423Z,14.47
2018-01-14T07:44:39.878Z,13.63
2018-01-14T07:47:08.286Z,13.60
2018-01-14T07:49:36.759Z,13.73
2018-01-14T07:52:05.144Z,14.00
2018-01-14T07:54:33.726Z,12.30
2018-01-14T07:57:02.205Z,14.47
2018-01-14T07:59:30.744Z,13.40
2018-01-14T08:01:59.415Z,13.07
2018-01-14T08:04:27.793Z,13.40
2018-01-14T08:06:56.172Z,12.03
2018-01-14T08:09:24.752Z,13.07
2018-01-14T08:11:53.151Z,13.27
2018-01-14T08:14:21.667Z,12.33
2018-01-14T08:16:50.187Z,13.87
2018-01-14T08:19:19.356Z,13.10
2018-01-14T08:21:47.763Z,13.80
2018-01-14T08:24:16.886Z,13.47
2018-01-14T08:26:45.396Z,13.33
2018-01-14T08:29:14.017Z,12.70
2018-01-14T08:31:43.355Z,13.60
2018-01-14T08:34:11.733Z,12.90
2018-01-14T08:36:40.140Z,13.40
2018-01-14T08:39:08.674Z,14.60
2018-01-14T08:41:38.061Z,13.87
2018-01-14T08:44:06.810Z,14.50
2018-01-14T08:46:35.472Z,13.50
2018-01-14T08:49:03.886Z,13.93
2018-01-14T08:51:32.432Z,14.67
2018-01-14T08:54:00.928Z,13.73
2018-01-14T08:56:30.336Z,13.50
2018-01-14T08:58:58.718Z,14.70
2018-01-14T09:01:32.822Z,13.40
2018-01-14T09:04:01.202Z,13.60
2018-01-14T09:06:29.555Z,13.53
2018-01-14T09:08:58.084Z,15.10
2018-01-14T09:11:26.602Z,13.53
2018-01-14T09:13:55.000Z,14.30
2018-01-14T09:16:23.380Z,13.20
2018-01-14T09:18:51.756Z,13.73
2018-01-14T09:21:20.298Z,14.77
2018-01-14T09:23:49.498Z,14.87
2018-01-14T09:26:18.737Z,14.87
2018-01-14T09:28:47.245Z,13.67
2018-01-14T09:31:15.870Z,14.00
2018-01-14T09:33:44.310Z,14.60
2018-01-14T09:36:12.691Z,14.60
2018-01-14T09:38:41.188Z,14.63
2018-01-14T09:41:09.776Z,14.03
2018-01-14T09:43:38.838Z,15.17
2018-01-14T09:46:07.352Z,15.20
2018-01-14T09:48:36.562Z,14.93
2018-01-14T09:51:05.188Z,14.80
2018-01-14T09:53:33.584Z,14.23
2018-01-14T09:56:02.147Z,16.00
2018-01-14T09:58:30.733Z,15.03
2018-01-14T10:00:59.130Z,16.03
2018-01-14T10:03:28.618Z,14.90
2018-01-14T10:05:56.979Z,15.80
2018-01-14T10:08:25.363Z,16.30
2018-01-14T10:10:53.900Z,15.97
2018-01-14T10:13:23.028Z,16.10
2018-01-14T10:15:51.707Z,15.67
2018-01-14T10:18:20.133Z,16.40
2018-01-14T10:20:48.495Z,16.30
2018-01-14T10:23:16.895Z,15.40
2018-01-14T10:25:45.263Z,15.43
2018-01-14T10:28:13.673Z,15.23
2018-01-14T10:30:42.044Z,15.50
2018-01-14T10:33:10.533Z,15.20
2018-01-14T10:35:43.145Z,16.70
2018-01-14T10:38:11.686Z,15.60
2018-01-14T10:40:40.827Z,16.40
2018-01-14T10:43:09.367Z,15.30
2018-01-14T10:45:38.514Z,15.10
2018-01-14T10:48:09.942Z,15.87
2018-01-14T10:50:38.338Z,15.70
2018-01-14T10:53:07.509Z,14.70
2018-01-14T10:55:37.838Z,15.27
2018-01-14T10:58:06.228Z,15.40
2018-01-14T11:00:40.171Z,15.43
2018-01-14T11:03:08.533Z,15.53
2018-01-14T11:05:36.965Z,14.70
2018-01-14T11:08:05.540Z,14.03
2018-01-14T11:10:34.080Z,15.00
2018-01-14T11:13:02.498Z,14.67
2018-01-14T11:15:31.172Z,15.23
2018-01-14T11:18:00.465Z,15.03
2018-01-14T11:20:30.031Z,14.40
2018-01-14T11:22:58.417Z,14.13
2018-01-14T11:25:26.810Z,13.93
2018-01-14T11:27:54.597Z,15.47
2018-01-14T11:30:23.048Z,15.20
2018-01-14T11:32:51.530Z,14.70
2018-01-14T11:35:19.927Z,15.00
2018-01-14T11:37:49.681Z,14.57
2018-01-14T11:40:18.064Z,15.27
2018-01-14T11:42:46.464Z,14.47
2018-01-14T11:45:14.881Z,15.23
2018-01-14T11:47:44.284Z,14.40
2018-01-14T11:50:13.751Z,13.40
2018-01-14T11:52:42.340Z,14.10
2018-01-14T11:55:10.889Z,14.27
2018-01-14T11:57:39.279Z,15.20
2018-01-14T12:00:07.795Z,14.50
2018-01-14T12:02:37.213Z,14.00
2018-01-14T12:05:06.384Z,12.77
2018-01-14T12:07:34.803Z,14.50
2018-01-14T12:10:03.238Z,13.73
2018-01-14T12:12:31.634Z,14.23
2018-01-14T12:15:00.033Z,15.27
2018-01-14T12:17:29.176Z,14.07
2018-01-14T12:19:57.615Z,13.03
2018-01-14T12:22:26.730Z,14.60
2018-01-14T12:24:55.100Z,13.93
2018-01-14T12:27:23.466Z,14.57
2018-01-14T12:29:51.972Z,13.57
2018-01-14T12:32:20.002Z,13.80
2018-01-14T12:34:53.280Z,14.33
2018-01-14T12:37:21.634Z,15.03
2018-01-14T12:39:50.402Z,14.93
2018-01-14T12:42:18.782Z,13.77
2018-01-14T12:44:47.294Z,13.30
2018-01-14T12:47:15.732Z,14.00
2018-01-14T12:49:45.134Z,13.70
2018-01-14T12:52:13.547Z,14.40
2018-01-14T12:54:43.546Z,15.00
2018-01-14T12:57:12.058Z,14.30
2018-01-14T12:59:40.437Z,14.13
2018-01-14T13:02:08.793Z,14.20
2018-01-14T13:04:37.167Z,13.50
2018-01-14T13:07:05.921Z,15.17
2018-01-14T13:09:34.450Z,13.80
2018-01-14T13:12:03.004Z,15.00
2018-01-14T13:14:31.375Z,14.30
2018-01-14T13:16:59.806Z,14.60
2018-01-14T13:19:28.212Z,15.40
2018-01-14T13:21:56.566Z,15.53
2018-01-14T13:24:25.703Z,15.00
2018-01-14T13:26:54.071Z,13.63
2018-01-14T13:29:22.508Z,15.60
2018-01-14T13:31:51.081Z,14.70
2018-01-14T13:34:19.430Z,15.00
2018-01-14T13:36:48.349Z,14.07
2018-01-14T13:39:16.722Z,14.83
2018-01-14T13:41:45.114Z,14.80
2018-01-14T13:44:13.460Z,15.40
2018-01-14T13:46:41.941Z,14.13
2018-01-14T13:49:10.293Z,14.10
2018-01-14T13:51:38.651Z,16.03
2018-01-14T13:54:07.032Z,15.20
2018-01-14T13:56:35.660Z,14.47
2018-01-14T13:59:03.714Z,15.00
2018-01-14T14:01:32.177Z,13.60
2018-01-14T14:04:00.542Z,14.33
2018-01-14T14:06:28.899Z,15.33
2018-01-14T14:08:58.019Z,14.10
2018-01-14T14:11:26.417Z,15.77
2018-01-14T14:13:54.821Z,14.07
2018-01-14T14:16:23.202Z,14.23
2018-01-14T14:18:53.091Z,14.60
2018-01-14T14:21:21.488Z,14.33
2018-01-14T14:23:49.847Z,14.50
2018-01-14T14:26:18.207Z,14.50
2018-01-14T14:28:46.600Z,15.23
2018-01-14T14:31:14.980Z,14.27
2018-01-14T14:33:43.479Z,13.43
2018-01-14T14:36:11.855Z,15.70
2018-01-14T14:38:40.207Z,15.53
2018-01-14T14:41:08.574Z,14.57
2018-01-14T14:43:36.943Z,15.37
2018-01-14T14:46:05.405Z,13.43
2018-01-14T14:48:33.939Z,14.30
2018-01-14T14:51:02.313Z,13.80
2018-01-14T14:53:32.201Z,14.83
2018-01-14T14:56:00.609Z,13.93
2018-01-14T14:58:29.067Z,14.17
2018-01-14T15:00:57.466Z,14.10
2018-01-14T15:03:25.841Z,14.23
2018-01-14T15:05:54.516Z,14.77
2018-01-14T15:08:22.874Z,14.10
2018-01-14T15:10:51.274Z,14.03
2018-01-14T15:13:19.922Z,14.17
2018-01-14T15:15:49.983Z,14.60
2018-01-14T15:18:18.434Z,14.37
2018-01-14T15:20:47.696Z,14.30
2018-01-14T15:23:16.054Z,13.93
2018-01-14T15:25:44.591Z,15.10
2018-01-14T15:28:13.736Z,14.47
2018-01-14T15:30:45.519Z,14.70
2018-01-14T15:33:13.887Z,13.53
2018-01-14T15:35:42.345Z,15.40
2018-01-14T15:38:10.721Z,13.77
2018-01-14T15:40:39.069Z,14.13
2018-01-14T15:43:07.550Z,14.03
2018-01-14T15:45:36.182Z,14.87
2018-01-14T15:48:04.534Z,14.00
2018-01-14T15:50:32.958Z,14.50
2018-01-14T15:53:01.314Z,15.03
2018-01-14T15:55:29.674Z,14.17
2018-01-14T15:57:58.293Z,14.50
2018-01-14T16:00:26.763Z,14.50
2018-01-14T16:02:55.323Z,14.60
2018-01-14T16:05:23.690Z,16.20
2018-01-14T16:07:52.266Z,15.83
2018-01-14T16:10:20.865Z,14.33
2018-01-14T16:12:49.387Z,14.40
2018-01-14T16:15:18.609Z,14.00
2018-01-14T16:17:47.133Z,14.83
2018-01-14T16:20:15.660Z,15.50
2018-01-14T16:22:44.997Z,15.20
2018-01-14T16:25:13.384Z,14.67
2018-01-14T16:27:41.770Z,15.43
2018-01-14T16:30:09.828Z,15.17
2018-01-14T16:32:38.186Z,15.33
2018-01-14T16:35:06.725Z,16.00
2018-01-14T16:37:35.100Z,14.70
2018-01-14T16:40:04.283Z,14.73
2018-01-14T16:42:32.699Z,13.40
2018-01-14T16:45:02.070Z,14.77
2018-01-14T16:47:30.561Z,14.67
2018-01-14T16:49:59.127Z,14.10
2018-01-14T16:52:27.896Z,14.73
2018-01-14T16:54:56.462Z,13.40
2018-01-14T16:57:24.999Z,14.60
2018-01-14T16:59:54.172Z,13.33
2018-01-14T17:02:22.567Z,15.03
2018-01-14T17:04:50.932Z,14.60
2018-01-14T17:07:19.552Z,13.47
2018-01-14T17:09:49.237Z,15.10
2018-01-14T17:12:17.693Z,14.83
2018-01-14T17:14:47.058Z,14.43
2018-01-14T17:17:15.843Z,15.10
2018-01-14T17:19:44.127Z,14.10
2018-01-14T17:22:12.589Z,14.67
2018-01-14T17:24:42.012Z,14.73
2018-01-14T17:27:10.600Z,15.30
2018-01-14T17:29:39.144Z,14.87
2018-01-14T17:32:08.291Z,14.23
2018-01-14T17:34:36.718Z,14.40
2018-01-14T17:37:05.948Z,16.27
2018-01-14T17:39:34.480Z,15.33
2018-01-14T17:42:03.084Z,14.10
2018-01-14T17:44:31.539Z,14.77
2018-01-14T17:46:59.953Z,15.23
2018-01-14T17:49:29.144Z,16.03
2018-01-14T17:51:58.801Z,17.73
2018-01-14T17:54:27.168Z,15.10
2018-01-14T17:56:55.709Z,15.17
2018-01-14T17:59:24.096Z,15.30
2018-01-14T18:01:52.684Z,15.13
2018-01-14T18:04:21.085Z,16.13
2018-01-14T18:06:49.467Z,16.27
2018-01-14T18:09:17.908Z,16.10
2018-01-14T18:11:47.035Z,16.00
2018-01-14T18:14:15.413Z,15.43
2018-01-14T18:16:55.093Z,15.60
2018-01-14T18:19:23.466Z,14.70
2018-01-14T18:21:51.966Z,14.60
2018-01-14T18:24:21.260Z,15.97
2018-01-14T18:26:50.947Z,15.97
2018-01-14T18:29:19.324Z,15.07
2018-01-14T18:31:47.741Z,17.20
2018-01-14T18:34:17.285Z,15.90
2018-01-14T18:36:45.809Z,16.10
2018-01-14T18:39:14.304Z,15.10
2018-01-14T18:41:42.863Z,16.20
2018-01-14T18:44:10.927Z,16.27
2018-01-14T18:46:39.381Z,15.37
2018-01-14T18:49:07.791Z,16.43
2018-01-14T18:51:36.990Z,15.60
2018-01-14T18:54:05.403Z,17.33
2018-01-14T18:56:34.626Z,16.53
2018-01-14T18:59:03.016Z,15.30
2018-01-14T19:01:31.389Z,17.37
2018-01-14T19:03:59.744Z,15.67
2018-01-14T19:06:28.139Z,15.90
2018-01-14T19:08:56.536Z,16.40
2018-01-14T19:11:24.923Z,15.97
2018-01-14T19:13:53.368Z,15.53
2018-01-14T19:16:21.789Z,16.23
2018-01-14T19:18:50.229Z,15.70
2018-01-14T19:21:18.663Z,16.20
2018-01-14T19:23:47.824Z,17.00
2018-01-14T19:26:16.207Z,16.50
2018-01-14T19:28:44.584Z,16.50
2018-01-14T19:31:13.065Z,14.80
2018-01-14T19:33:41.420Z,17.30
2018-01-14T19:36:10.084Z,16.67
2018-01-14T19:38:39.323Z,16.23
2018-01-14T19:41:08.320Z,16.30
2018-01-14T19:43:36.708Z,16.43
2018-01-14T19:46:05.876Z,16.20
2018-01-14T19:48:34.264Z,16.13
2018-01-14T19:51:02.728Z,16.00
2018-01-14T19:53:31.111Z,16.97
2018-01-14T19:55:59.527Z,15.80
2018-01-14T19:58:28.727Z,16.10
2018-01-14T20:00:57.117Z,15.53
2018-01-14T20:03:26.251Z,15.83
2018-01-14T20:05:54.892Z,16.47
2018-01-14T20:08:23.437Z,16.10
2018-01-14T20:10:52.045Z,15.73
2018-01-14T20:13:20.586Z,16.17
2018-01-14T20:15:49.128Z,16.63
2018-01-14T20:18:18.314Z,15.73
2018-01-14T20:20:46.886Z,15.93
2018-01-14T20:23:15.385Z,16.10
2018-01-14T20:25:44.788Z,15.30
2018-01-14T20:28:14.159Z,15.10
2018-01-14T20:30:42.574Z,17.10
2018-01-14T20:33:11.736Z,15.90
2018-01-14T20:35:40.402Z,16.83
2018-01-14T20:38:08.832Z,15.57
2018-01-14T20:40:38.025Z,17.73
2018-01-14T20:43:07.333Z,17.10
2018-01-14T20:45:36.497Z,17.70
2018-01-14T20:48:04.916Z,17.83
2018-01-14T20:50:33.299Z,17.77
2018-01-14T20:53:01.716Z,17.27
2018-01-14T20:55:30.333Z,17.03
2018-01-14T20:57:58.870Z,15.97
2018-01-14T21:00:27.261Z,17.50
2018-01-14T21:02:55.670Z,17.50
2018-01-14T21:05:24.102Z,17.83
2018-01-14T21:07:52.633Z,16.43
2018-01-14T21:10:21.063Z,18.20
2018-01-14T21:12:49.142Z,17.43
2018-01-14T21:15:17.524Z,16.67
2018-01-14T21:17:45.931Z,17.67
2018-01-14T21:20:14.384Z,18.53
2018-01-14T21:22:42.927Z,17.73
2018-01-14T21:25:11.347Z,17.20
2018-01-14T21:27:39.825Z,16.83
2018-01-14T21:30:08.794Z,18.70
2018-01-14T21:32:37.400Z,17.60
2018-01-14T21:35:07.208Z,17.50
2018-01-14T21:37:35.598Z,17.97
2018-01-14T21:40:03.668Z,18.00
2018-01-14T21:42:32.240Z,17.70
2018-01-14T21:45:00.647Z,18.47
2018-01-14T21:47:29.054Z,17.73
2018-01-14T21:49:58.231Z,17.90
2018-01-14T21:52:26.614Z,17.70
2018-01-14T21:54:56.638Z,18.27
2018-01-14T21:57:25.057Z,17.77
2018-01-14T21:59:53.453Z,18.03
2018-01-14T22:02:21.914Z,17.73
2018-01-14T22:04:50.364Z,18.77
2018-01-14T22:07:19.519Z,18.47
2018-01-14T22:09:47.965Z,18.37
2018-01-14T22:12:16.549Z,17.60
2018-01-14T22:14:44.944Z,17.50
2018-01-14T22:17:13.343Z,18.10
2018-01-14T22:19:41.716Z,17.80
2018-01-14T22:22:10.090Z,19.07
2018-01-14T22:24:38.519Z,18.60
2018-01-14T22:27:07.031Z,18.00
2018-01-14T22:29:35.411Z,17.90
2018-01-14T22:32:03.912Z,18.00
2018-01-14T22:34:32.523Z,18.77
2018-01-14T22:37:00.963Z,17.73
2018-01-14T22:39:29.362Z,18.50
2018-01-14T22:41:57.807Z,19.03
2018-01-14T22:44:26.170Z,18.73
2018-01-14T22:46:54.722Z,17.57
2018-01-14T22:49:23.866Z,17.00
2018-01-14T22:51:52.548Z,18.53
2018-01-14T22:54:20.965Z,18.50
2018-01-14T22:56:49.357Z,19.23
2018-01-14T22:59:18.327Z,19.60
2018-01-14T23:01:46.671Z,18.40
2018-01-14T23:04:15.041Z,18.30
2018-01-14T23:06:43.439Z,18.67
2018-01-14T23:09:11.829Z,18.17
2018-01-14T23:11:40.352Z,17.30
2018-01-14T23:14:09.518Z,18.93
2018-01-14T23:16:38.142Z,18.20
2018-01-14T23:19:06.571Z,16.57
2018-01-14T23:21:34.961Z,18.40
2018-01-14T23:24:03.367Z,17.03
2018-01-14T23:26:32.616Z,17.20
2018-01-14T23:29:01.131Z,18.80
2018-01-14T23:31:30.316Z,17.33
2018-01-14T23:33:58.713Z,19.33
2018-01-14T23:36:27.900Z,17.20
2018-01-14T23:38:57.086Z,18.50
2018-01-14T23:41:25.686Z,17.80
2018-01-14T23:43:55.782Z,17.67
2018-01-14T23:46:24.290Z,16.07
2018-01-14T23:48:52.740Z,18.03
2018-01-14T23:51:21.152Z,18.20
2018-01-14T23:53:50.541Z,16.00
2018-01-14T23:56:18.914Z,17.93
2018-01-14T23:58:47.288Z,17.10
